Time;durP1;ratioP1;P1;durP2;ratioP2;P2;SDS_P1;SDS_P2;PMS_P1;PMS_P2;Temp;Humidity;BMP_temperature;BMP_pressure;BME280_temperature;BME280_humidity;BME280_pressure;Samples;Min_cycle;Max_cycle;Signal;HPM_P1;HPM_P2
2023/04/24 05:53:33;;;;;;;;;4.25;4.25;;;;;-145.45;100.00;57426.63;6215728;22;46326;-74
2023/04/24 05:55:58;;;;;;;;;10.00;8.00;;;;;-145.45;100.00;57426.63;6241764;22;45539;-75
2023/04/24 05:58:24;;;;;;;;;7.00;6.00;;;;;-145.45;100.00;57426.63;6242974;22;47144;-75
2023/04/24 06:00:49;;;;;;;;;5.00;5.00;;;;;-145.45;100.00;57426.63;6246048;22;45338;-74
2023/04/24 06:03:15;;;;;;;;;11.75;9.00;;;;;-145.45;100.00;57426.63;6242228;22;45321;-74
2023/04/24 06:05:40;;;;;;;;;7.25;7.25;;;;;-145.45;100.00;57426.63;6246401;22;45303;-75
2023/04/24 06:08:06;;;;;;;;;10.00;9.75;;;;;-145.45;100.00;57426.63;6243375;22;45256;-74
2023/04/24 06:10:32;;;;;;;;;11.50;8.75;;;;;-145.45;100.00;57426.63;6245880;22;45902;-74
2023/04/24 06:13:00;;;;;;;;;9.50;9.25;;;;;-145.45;100.00;57426.63;6245612;22;45222;-73
2023/04/24 06:15:28;;;;;;;;;12.00;10.50;;;;;-145.45;100.00;57426.63;6245834;22;45169;-74
2023/04/24 06:17:53;;;;;;;;;11.00;9.00;;;;;-145.45;100.00;57426.63;6245888;22;45488;-74
2023/04/24 06:20:18;;;;;;;;;9.25;9.25;;;;;-145.45;100.00;57426.63;6246502;22;45304;-74
2023/04/24 06:22:44;;;;;;;;;10.00;9.00;;;;;-145.45;100.00;57426.63;6247254;22;45225;-74
2023/04/24 06:25:09;;;;;;;;;9.00;9.00;;;;;-145.45;100.00;57426.63;6242797;22;45522;-74
2023/04/24 06:27:35;;;;;;;;;12.50;9.75;;;;;-145.45;100.00;57426.63;6244926;22;45468;-74
2023/04/24 06:30:00;;;;;;;;;12.75;9.25;;;;;-145.45;100.00;57426.63;6244693;22;46103;-74
2023/04/24 06:32:27;;;;;;;;;12.25;9.75;;;;;-145.45;100.00;57426.63;6246182;22;45283;-74
2023/04/24 06:34:52;;;;;;;;;12.00;12.00;;;;;-145.45;100.00;57426.63;6244830;22;45288;-74
2023/04/24 06:37:19;;;;;;;;;10.75;10.00;;;;;-145.45;100.00;57426.63;6246559;22;45240;-74
2023/04/24 06:39:44;;;;;;;;;14.75;12.75;;;;;-145.45;100.00;57426.63;6245597;22;45589;-74
2023/04/24 06:42:10;;;;;;;;;14.00;11.25;;;;;-145.45;100.00;57426.63;6246639;22;45295;-74
2023/04/24 06:44:40;;;;;;;;;10.50;8.50;;;;;-145.45;100.00;57426.63;6243689;22;45223;-75
2023/04/24 06:47:07;;;;;;;;;17.25;12.75;;;;;-145.45;100.00;57426.63;6244551;22;45848;-74
2023/04/24 06:49:32;;;;;;;;;10.00;9.75;;;;;-145.45;100.00;57426.63;6247281;22;45207;-72
2023/04/24 06:51:57;;;;;;;;;14.00;12.75;;;;;-145.45;100.00;57426.63;6247199;22;45181;-74
2023/04/24 06:54:22;;;;;;;;;12.00;12.00;;;;;-145.45;100.00;57426.63;6254323;22;45210;-74
2023/04/24 06:56:49;;;;;;;;;11.50;11.50;;;;;-145.45;100.00;57426.63;6250357;22;46527;-74
2023/04/24 06:59:14;;;;;;;;;14.75;14.00;;;;;-145.45;100.00;57426.63;6278100;22;46301;-74
2023/04/24 07:01:40;;;;;;;;;10.00;10.00;;;;;-145.45;100.00;57426.63;6278085;22;45336;-74
2023/04/24 07:04:05;;;;;;;;;12.00;12.00;;;;;-145.45;100.00;57426.63;6249817;22;45194;-75
2023/04/24 07:06:31;;;;;;;;;15.50;10.00;;;;;-145.45;100.00;57426.63;6278036;22;45355;-74
2023/04/24 07:08:57;;;;;;;;;16.00;12.25;;;;;-145.45;100.00;57426.63;6276732;22;45252;-74
2023/04/24 07:11:22;;;;;;;;;15.00;13.50;;;;;-145.45;100.00;57426.63;6277913;22;45283;-74
2023/04/24 07:13:47;;;;;;;;;13.00;11.00;;;;;-145.45;100.00;57426.63;6278114;22;45743;-74
2023/04/24 07:16:13;;;;;;;;;16.00;14.75;;;;;-145.45;100.00;57426.63;6277980;22;45308;-74
2023/04/24 07:18:39;;;;;;;;;12.75;12.75;;;;;-145.45;100.00;57426.63;6250009;22;47090;-74
2023/04/24 07:21:04;;;;;;;;;16.00;14.00;;;;;-145.45;100.00;57426.63;6278217;22;45259;-74
2023/04/24 07:23:31;;;;;;;;;15.50;15.00;;;;;-145.45;100.00;57426.63;6277663;22;45177;-74
2023/04/24 07:25:56;;;;;;;;;13.75;11.25;;;;;-145.45;100.00;57426.63;6277006;22;45397;-74
2023/04/24 07:28:21;;;;;;;;;13.75;11.25;;;;;-145.45;100.00;57426.63;6250031;22;46150;-74
2023/04/24 07:30:47;;;;;;;;;14.25;12.75;;;;;-145.45;100.00;57426.63;6278054;22;45236;-74
2023/04/24 07:33:13;;;;;;;;;14.00;12.25;;;;;-145.45;100.00;57426.63;6278351;22;45153;-74
2023/04/24 07:35:38;;;;;;;;;18.75;14.50;;;;;-145.45;100.00;57426.63;6250334;22;45175;-74
2023/04/24 07:38:04;;;;;;;;;13.75;13.25;;;;;-145.45;100.00;57426.63;6249783;22;45869;-74
2023/04/24 07:40:30;;;;;;;;;15.25;13.75;;;;;-145.45;100.00;57426.63;6249317;22;45471;-74
2023/04/24 07:42:55;;;;;;;;;12.00;10.50;;;;;-145.45;100.00;57426.63;6250280;22;45161;-74
2023/04/24 07:45:20;;;;;;;;;17.25;12.25;;;;;-145.45;100.00;57426.63;6249987;22;45562;-73
2023/04/24 07:47:46;;;;;;;;;17.50;16.25;;;;;-145.45;100.00;57426.63;6277991;22;46054;-73
2023/04/24 07:50:12;;;;;;;;;10.00;9.50;;;;;-145.45;100.00;57426.63;6249912;22;45188;-73
2023/04/24 07:52:38;;;;;;;;;10.50;10.50;;;;;-145.45;100.00;57426.63;6278376;22;45224;-73
2023/04/24 07:55:04;;;;;;;;;22.50;15.50;;;;;-145.45;100.00;57426.63;6276674;22;45247;-73
2023/04/24 07:57:30;;;;;;;;;14.00;12.50;;;;;-145.45;100.00;57426.63;6249468;22;47411;-74
2023/04/24 07:59:55;;;;;;;;;14.25;13.25;;;;;-145.45;100.00;57426.63;6249450;22;45291;-74
2023/04/24 08:02:25;;;;;;;;;17.50;14.25;;;;;-145.45;100.00;57426.63;6277954;22;45287;-74
2023/04/24 08:04:51;;;;;;;;;16.00;12.25;;;;;-145.45;100.00;57426.63;6248393;22;46185;-74
2023/04/24 08:07:17;;;;;;;;;17.25;14.00;;;;;-145.45;100.00;57426.63;6277462;22;45235;-74
2023/04/24 08:09:42;;;;;;;;;13.50;13.00;;;;;-145.45;100.00;57426.63;6249486;22;46315;-73
2023/04/24 08:12:07;;;;;;;;;16.00;14.75;;;;;-145.45;100.00;57426.63;6277271;22;45215;-73
2023/04/24 08:14:32;;;;;;;;;13.50;13.50;;;;;-145.45;100.00;57426.63;6277493;22;45388;-73
2023/04/24 08:17:00;;;;;;;;;16.00;13.50;;;;;-145.45;100.00;57426.63;6277647;22;45273;-74
2023/04/24 08:19:25;;;;;;;;;17.50;16.50;;;;;-145.45;100.00;57426.63;6277562;22;45266;-73
2023/04/24 08:21:50;;;;;;;;;18.25;16.00;;;;;-145.45;100.00;57426.63;6278060;22;45255;-74
2023/04/24 08:24:16;;;;;;;;;15.75;14.00;;;;;-145.45;100.00;57426.63;6277090;22;45296;-73
2023/04/24 08:26:41;;;;;;;;;17.75;14.25;;;;;-145.45;100.00;57426.63;6277410;22;45295;-73
2023/04/24 08:29:06;;;;;;;;;15.00;13.75;;;;;-145.45;100.00;57426.63;6275950;22;45194;-73
2023/04/24 08:31:32;;;;;;;;;17.25;14.00;;;;;-145.45;100.00;57426.63;6249774;22;45004;-71
2023/04/24 08:33:58;;;;;;;;;18.25;15.00;;;;;-145.45;100.00;57426.63;6277566;22;45208;-73
2023/04/24 08:36:23;;;;;;;;;18.50;14.75;;;;;-145.45;100.00;57426.63;6277326;22;46488;-72
2023/04/24 08:38:49;;;;;;;;;16.25;15.00;;;;;-145.45;100.00;57426.63;6277137;22;45167;-72
2023/04/24 08:41:15;;;;;;;;;15.00;14.25;;;;;-145.45;100.00;57426.63;6249507;22;45253;-73
2023/04/24 08:43:41;;;;;;;;;18.75;17.75;;;;;-145.45;100.00;57426.63;6276626;22;45244;-72
2023/04/24 08:46:07;;;;;;;;;19.50;19.50;;;;;-145.45;100.00;57426.63;6276933;22;46083;-73
2023/04/24 08:48:32;;;;;;;;;16.00;16.00;;;;;-145.45;100.00;57426.63;6277338;22;45262;-73
2023/04/24 08:50:59;;;;;;;;;18.75;17.75;;;;;-145.45;100.00;57426.63;6276819;22;45205;-73
2023/04/24 08:53:25;;;;;;;;;21.75;18.25;;;;;-145.45;100.00;57426.63;6277176;22;45287;-72
2023/04/24 08:55:53;;;;;;;;;23.25;19.75;;;;;-145.45;100.00;57426.63;6276685;22;45282;-72
2023/04/24 08:58:19;;;;;;;;;18.50;17.00;;;;;-145.45;100.00;57426.63;6277226;22;45224;-72
2023/04/24 09:00:49;;;;;;;;;20.75;18.25;;;;;-145.45;100.00;57426.63;6277886;22;45166;-72
2023/04/24 09:03:15;;;;;;;;;19.50;16.00;;;;;-145.45;100.00;57426.63;6277195;22;45280;-71
2023/04/24 09:05:45;;;;;;;;;16.00;16.00;;;;;-145.45;100.00;57426.63;6277234;22;45193;-72
2023/04/24 09:08:13;;;;;;;;;20.50;19.25;;;;;-145.45;100.00;57426.63;6277220;22;45236;-71
2023/04/24 09:10:39;;;;;;;;;22.25;19.00;;;;;-145.45;100.00;57426.63;6278698;22;45350;-72
2023/04/24 09:13:05;;;;;;;;;15.25;15.00;;;;;-145.45;100.00;57426.63;6278460;22;45475;-72
2023/04/24 09:15:31;;;;;;;;;18.25;16.75;;;;;-145.45;100.00;57426.63;6250626;22;45600;-71
2023/04/24 09:17:57;;;;;;;;;19.50;18.50;;;;;-145.45;100.00;57426.63;6278578;22;45197;-72
2023/04/24 09:20:22;;;;;;;;;19.75;16.50;;;;;-145.45;100.00;57426.63;6278681;22;45220;-72
2023/04/24 09:22:47;;;;;;;;;17.00;15.00;;;;;-145.45;100.00;57426.63;6278960;22;45439;-72
2023/04/24 09:25:13;;;;;;;;;19.75;18.50;;;;;-145.45;100.00;57426.63;6277894;22;45298;-72
2023/04/24 09:27:43;;;;;;;;;21.75;19.25;;;;;-145.45;100.00;57426.63;6277483;22;45200;-72
2023/04/24 09:30:09;;;;;;;;;22.50;21.00;;;;;-145.45;100.00;57426.63;6276360;22;45263;-72
2023/04/24 09:32:35;;;;;;;;;19.50;17.25;;;;;-145.45;100.00;57426.63;6277143;22;45377;-71
2023/04/24 09:35:07;;;;;;;;;21.75;20.00;;;;;-145.45;100.00;57426.63;6250399;22;48055;-71
2023/04/24 09:37:38;;;;;;;;;16.25;15.25;;;;;-145.45;100.00;57426.63;6278980;22;45343;-72
2023/04/24 09:40:12;;;;;;;;;23.25;21.25;;;;;-145.45;100.00;57426.63;6277889;22;45233;-71
2023/04/24 09:42:38;;;;;;;;;22.00;19.25;;;;;-145.45;100.00;57426.63;6278568;22;45400;-71
2023/04/24 09:45:08;;;;;;;;;18.75;16.75;;;;;-145.45;100.00;57426.63;6250244;22;47129;-72
2023/04/24 09:47:37;;;;;;;;;15.00;14.25;;;;;-145.45;100.00;57426.63;6278457;22;45218;-72
2023/04/24 09:50:16;;;;;;;;;23.75;18.25;;;;;-145.45;100.00;57426.63;6250301;22;45205;-72
2023/04/24 09:52:47;;;;;;;;;19.25;17.50;;;;;-145.45;100.00;57426.63;6250579;22;45475;-72
2023/04/24 09:55:17;;;;;;;;;17.25;14.00;;;;;-145.45;100.00;57426.63;6276711;22;45414;-71
2023/04/24 09:58:01;;;;;;;;;18.25;16.00;;;;;-145.45;100.00;57426.63;6278923;22;45252;-72
2023/04/24 10:00:29;;;;;;;;;19.00;17.50;;;;;-145.45;100.00;57426.63;6278405;22;45202;-72
2023/04/24 10:03:02;;;;;;;;;21.00;16.75;;;;;-145.45;100.00;57426.63;6250359;22;46065;-72
2023/04/24 10:05:32;;;;;;;;;21.75;19.00;;;;;-145.45;100.00;57426.63;6277637;22;45307;-72
2023/04/24 10:08:02;;;;;;;;;19.00;16.50;;;;;-145.45;100.00;57426.63;6277509;22;45205;-72
2023/04/24 10:10:28;;;;;;;;;16.50;15.50;;;;;-145.45;100.00;57426.63;6250024;22;45328;-72
2023/04/24 10:12:54;;;;;;;;;21.50;17.75;;;;;-145.45;100.00;57426.63;6250628;22;45695;-72
2023/04/24 10:15:21;;;;;;;;;18.50;17.00;;;;;-145.45;100.00;57426.63;6277725;22;45639;-72
2023/04/24 10:17:53;;;;;;;;;15.00;14.25;;;;;-145.45;100.00;57426.63;6278457;22;45240;-73
2023/04/24 10:20:23;;;;;;;;;18.00;17.25;;;;;-145.45;100.00;57426.63;6276713;22;45523;-72
2023/04/24 10:22:51;;;;;;;;;16.00;15.25;;;;;-145.45;100.00;57426.63;6277965;22;45458;-73
2023/04/24 10:25:19;;;;;;;;;16.00;13.75;;;;;-145.45;100.00;57426.63;6277125;22;46502;-73
2023/04/24 10:27:46;;;;;;;;;16.75;16.50;;;;;-145.45;100.00;57426.63;6250555;22;45474;-73
2023/04/24 10:30:12;;;;;;;;;15.33;14.67;;;;;-145.45;100.00;57426.63;6278222;22;45327;-73
2023/04/24 10:32:38;;;;;;;;;16.75;15.25;;;;;-145.45;100.00;57426.63;6278484;22;45093;-73
2023/04/24 10:35:03;;;;;;;;;15.50;12.75;;;;;-145.45;100.00;57426.63;6277950;22;45333;-73
2023/04/24 10:37:36;;;;;;;;;15.00;13.50;;;;;-145.45;100.00;57426.63;6278123;22;45239;-74
2023/04/24 10:40:02;;;;;;;;;18.25;16.50;;;;;-145.45;100.00;57426.63;6277914;22;45184;-72
2023/04/24 10:42:28;;;;;;;;;16.50;14.00;;;;;-145.45;100.00;57426.63;6250313;22;45890;-73
2023/04/24 10:44:54;;;;;;;;;15.25;13.50;;;;;-145.45;100.00;57426.63;6250172;22;47151;-72
2023/04/24 10:47:19;;;;;;;;;17.67;14.33;;;;;-145.45;100.00;57426.63;6278459;22;45255;-72
2023/04/24 10:49:45;;;;;;;;;14.00;12.00;;;;;-145.45;100.00;57426.63;6277014;22;45202;-73
2023/04/24 10:52:11;;;;;;;;;12.00;10.67;;;;;-145.45;100.00;57426.63;6250301;22;46070;-72
2023/04/24 10:54:40;;;;;;;;;13.67;12.67;;;;;-145.45;100.00;57426.63;6277161;22;45930;-72
2023/04/24 10:57:20;;;;;;;;;14.67;13.00;;;;;-145.45;100.00;57426.63;6278437;22;45267;-72
2023/04/24 10:59:51;;;;;;;;;14.33;13.33;;;;;-145.45;100.00;57426.63;6250426;22;45154;-72
2023/04/24 11:02:18;;;;;;;;;14.00;12.33;;;;;-145.45;100.00;57426.63;6278423;22;45240;-71
2023/04/24 11:04:44;;;;;;;;;12.00;12.00;;;;;-145.45;100.00;57426.63;6277895;22;45327;-72
2023/04/24 11:07:11;;;;;;;;;16.00;15.00;;;;;-145.45;100.00;57426.63;6278165;22;45173;-73
2023/04/24 11:09:40;;;;;;;;;16.67;15.00;;;;;-145.45;100.00;57426.63;6277602;22;45148;-72
2023/04/24 11:12:10;;;;;;;;;14.00;14.00;;;;;-145.45;100.00;57426.63;6277682;22;45469;-70
2023/04/24 11:15:00;;;;;;;;;16.33;12.00;;;;;-145.45;100.00;57426.63;6276983;22;45177;-73
2023/04/24 11:17:28;;;;;;;;;12.67;11.00;;;;;-145.45;100.00;57426.63;6263213;22;45699;-72
2023/04/24 11:20:01;;;;;;;;;12.00;11.33;;;;;-145.45;100.00;57426.63;6274682;22;45691;-73
2023/04/24 11:22:31;;;;;;;;;14.33;13.33;;;;;-145.45;100.00;57426.63;6277224;22;45231;-74
2023/04/24 11:25:01;;;;;;;;;13.00;12.00;;;;;-145.45;100.00;57426.63;6277450;22;45131;-73
2023/04/24 11:27:31;;;;;;;;;15.67;14.00;;;;;-145.45;100.00;57426.63;6272586;22;45363;-71
2023/04/24 11:29:56;;;;;;;;;16.67;14.00;;;;;-145.45;100.00;57426.63;6248182;22;45619;-73
2023/04/24 11:32:38;;;;;;;;;10.67;10.67;;;;;-145.45;100.00;57426.63;6249140;22;45181;-73
2023/04/24 11:35:09;;;;;;;;;13.33;12.33;;;;;-145.45;100.00;57426.63;6276272;22;45239;-71
2023/04/24 11:37:40;;;;;;;;;14.00;14.00;;;;;-145.45;100.00;57426.63;6249815;22;45314;-73
2023/04/24 11:40:08;;;;;;;;;13.33;12.00;;;;;-145.45;100.00;57426.63;6276841;22;45133;-70
2023/04/24 11:42:35;;;;;;;;;13.67;12.67;;;;;-145.45;100.00;57426.63;6277682;22;45635;-72
2023/04/24 11:45:01;;;;;;;;;13.00;10.00;;;;;-145.45;100.00;57426.63;6276716;22;45405;-72
2023/04/24 11:47:33;;;;;;;;;11.33;10.67;;;;;-145.45;100.00;57426.63;6277371;22;45288;-73
2023/04/24 11:49:59;;;;;;;;;13.33;10.00;;;;;-145.45;100.00;57426.63;6277229;22;45326;-73
2023/04/24 11:52:26;;;;;;;;;10.67;8.00;;;;;-145.45;100.00;57426.63;6277250;22;45491;-73
2023/04/24 11:54:51;;;;;;;;;8.00;8.00;;;;;-145.45;100.00;57426.63;6276441;22;46471;-73
2023/04/24 11:57:20;;;;;;;;;7.33;7.33;;;;;-145.45;100.00;57426.63;6277864;22;45224;-73
2023/04/24 11:59:46;;;;;;;;;10.00;8.67;;;;;-145.45;100.00;57426.63;6250716;22;45262;-73
2023/04/24 12:02:23;;;;;;;;;10.67;10.67;;;;;-145.45;100.00;57426.63;6249992;22;45240;-71
2023/04/24 12:04:49;;;;;;;;;8.00;7.00;;;;;-145.45;100.00;57426.63;6248914;22;47643;-70
2023/04/24 12:07:15;;;;;;;;;7.67;6.33;;;;;-145.45;100.00;57426.63;6277668;22;45295;-72
2023/04/24 12:09:45;;;;;;;;;9.33;7.00;;;;;-145.45;100.00;57426.63;6276205;22;45297;-72
2023/04/24 12:12:12;;;;;;;;;8.00;7.67;;;;;-145.45;100.00;57426.63;6276501;22;45492;-70
2023/04/24 12:14:49;;;;;;;;;7.33;6.33;;;;;-145.45;100.00;57426.63;6277226;22;45850;-72
2023/04/24 12:17:23;;;;;;;;;5.67;5.67;;;;;-145.45;100.00;57426.63;6277297;22;45333;-73
2023/04/24 12:19:48;;;;;;;;;6.00;6.00;;;;;-145.45;100.00;57426.63;6249295;22;45280;-73
2023/04/24 12:22:14;;;;;;;;;6.00;6.00;;;;;-145.45;100.00;57426.63;6277523;22;45489;-73
2023/04/24 12:24:57;;;;;;;;;7.00;6.00;;;;;-145.45;100.00;57426.63;6276720;22;46056;-72
2023/04/24 12:27:22;;;;;;;;;5.33;5.33;;;;;-145.45;100.00;57426.63;6277185;22;45496;-72
2023/04/24 12:29:53;;;;;;;;;5.67;5.67;;;;;-145.45;100.00;57426.63;6276049;22;45300;-72
2023/04/24 12:32:18;;;;;;;;;4.67;4.00;;;;;-145.45;100.00;57426.63;6277021;22;45486;-72
2023/04/24 12:34:44;;;;;;;;;6.33;4.67;;;;;-145.45;100.00;57426.63;6275802;22;45585;-73
2023/04/24 12:37:11;;;;;;;;;8.33;6.33;;;;;-145.45;100.00;57426.63;6277261;22;45230;-73
2023/04/24 12:39:36;;;;;;;;;4.00;4.00;;;;;-145.45;100.00;57426.63;6249091;22;45181;-72
2023/04/24 12:42:02;;;;;;;;;7.00;7.00;;;;;-145.45;100.00;57426.63;6277190;22;45240;-73
2023/04/24 12:44:34;;;;;;;;;7.00;7.00;;;;;-145.45;100.00;57426.63;6278211;22;45580;-72
2023/04/24 12:47:02;;;;;;;;;11.00;8.00;;;;;-145.45;100.00;57426.63;6276566;22;45875;-72
2023/04/24 12:49:30;;;;;;;;;7.33;4.00;;;;;-145.45;100.00;57426.63;6277242;22;45595;-75
2023/04/24 12:51:56;;;;;;;;;10.33;6.67;;;;;-145.45;100.00;57426.63;6278216;22;45181;-75
2023/04/24 12:54:22;;;;;;;;;5.00;5.00;;;;;-145.45;100.00;57426.63;6277677;22;45268;-74
2023/04/24 12:56:47;;;;;;;;;5.67;4.67;;;;;-145.45;100.00;57426.63;6278877;22;44653;-75
2023/04/24 12:59:12;;;;;;;;;5.00;3.33;;;;;-145.45;100.00;57426.63;6278591;22;45212;-75
2023/04/24 13:01:38;;;;;;;;;6.00;5.00;;;;;-145.45;100.00;57426.63;6278776;22;45822;-71
2023/04/24 13:04:03;;;;;;;;;6.00;6.00;;;;;-145.45;100.00;57426.63;6277796;22;45349;-71
2023/04/24 13:06:28;;;;;;;;;5.00;5.00;;;;;-145.45;100.00;57426.63;6250432;22;45322;-71
2023/04/24 13:08:54;;;;;;;;;8.33;7.00;;;;;-145.45;100.00;57426.63;6277507;22;48384;-73
2023/04/24 13:11:21;;;;;;;;;5.00;5.00;;;;;-145.45;100.00;57426.63;6279020;22;45253;-73
2023/04/24 13:13:47;;;;;;;;;2.00;2.00;;;;;-145.45;100.00;57426.63;6276856;22;45239;-72
2023/04/24 13:16:12;;;;;;;;;5.00;5.00;;;;;-145.45;100.00;57426.63;6278783;22;45352;-73
2023/04/24 13:18:37;;;;;;;;;6.00;5.67;;;;;-145.45;100.00;57426.63;6250209;22;45312;-72
2023/04/24 13:21:03;;;;;;;;;4.67;4.67;;;;;-145.45;100.00;57426.63;6250422;22;46897;-72
2023/04/24 13:23:29;;;;;;;;;7.33;6.00;;;;;-145.45;100.00;57426.63;6278046;22;45962;-72
2023/04/24 13:25:57;;;;;;;;;6.00;6.00;;;;;-145.45;100.00;57426.63;6250944;22;45584;-72
2023/04/24 13:28:23;;;;;;;;;10.00;6.00;;;;;-145.45;100.00;57426.63;6278481;22;45229;-71
2023/04/24 13:30:48;;;;;;;;;8.33;6.33;;;;;-145.45;100.00;57426.63;6278492;22;45406;-72
2023/04/24 13:33:13;;;;;;;;;5.00;5.00;;;;;-145.45;100.00;57426.63;6278213;22;45153;-72
2023/04/24 13:35:39;;;;;;;;;5.00;5.00;;;;;-145.45;100.00;57426.63;6278508;22;45177;-71
2023/04/24 13:38:06;;;;;;;;;6.67;6.00;;;;;-145.45;100.00;57426.63;6277197;22;45090;-72
2023/04/24 13:40:32;;;;;;;;;4.00;3.33;;;;;-145.45;100.00;57426.63;6278542;22;45309;-72
2023/04/24 13:42:57;;;;;;;;;4.00;4.00;;;;;-145.45;100.00;57426.63;6250133;22;46360;-72
2023/04/24 13:45:22;;;;;;;;;4.33;3.00;;;;;-145.45;100.00;57426.63;6276768;22;45615;-72
2023/04/24 13:47:48;;;;;;;;;4.00;4.00;;;;;-145.45;100.00;57426.63;6278897;22;45739;-72
2023/04/24 13:50:13;;;;;;;;;4.00;4.00;;;;;-145.45;100.00;57426.63;6250082;22;49419;-71
2023/04/24 13:52:38;;;;;;;;;6.67;5.00;;;;;-145.45;100.00;57426.63;6278511;22;45260;-71
2023/04/24 13:55:04;;;;;;;;;6.00;5.00;;;;;-145.45;100.00;57426.63;6276723;22;46688;-72
2023/04/24 13:57:31;;;;;;;;;3.00;3.00;;;;;-145.45;100.00;57426.63;6278839;22;45197;-71
2023/04/24 14:00:00;;;;;;;;;6.33;4.00;;;;;-145.45;100.00;57426.63;6278552;22;45435;-72
2023/04/24 14:02:26;;;;;;;;;4.00;4.00;;;;;-145.45;100.00;57426.63;6250167;22;46872;-71
2023/04/24 14:04:51;;;;;;;;;4.00;4.00;;;;;-145.45;100.00;57426.63;6278152;22;45129;-71
2023/04/24 14:07:17;;;;;;;;;4.00;4.00;;;;;-145.45;100.00;57426.63;6278442;22;45206;-71
2023/04/24 14:09:42;;;;;;;;;4.33;4.33;;;;;-145.45;100.00;57426.63;6277439;22;45103;-71
2023/04/24 14:12:07;;;;;;;;;5.00;5.00;;;;;-145.45;100.00;57426.63;6277518;22;46282;-72
2023/04/24 14:14:33;;;;;;;;;5.00;4.00;;;;;-145.45;100.00;57426.63;6277483;22;45288;-71
2023/04/24 14:16:58;;;;;;;;;4.00;4.00;;;;;-145.45;100.00;57426.63;6250623;22;45375;-72
2023/04/24 14:19:24;;;;;;;;;0.67;0.67;;;;;-145.45;100.00;57426.63;6278453;22;45281;-72
2023/04/24 14:21:49;;;;;;;;;6.00;4.33;;;;;-145.45;100.00;57426.63;6250241;22;47604;-71
2023/04/24 14:24:15;;;;;;;;;7.67;7.67;;;;;-145.45;100.00;57426.63;6277743;22;45328;-71
2023/04/24 14:26:40;;;;;;;;;4.00;3.00;;;;;-145.45;100.00;57426.63;6277419;22;45327;-72
2023/04/24 14:29:06;;;;;;;;;4.67;4.67;;;;;-145.45;100.00;57426.63;6277865;22;45386;-72
2023/04/24 14:31:31;;;;;;;;;3.33;3.33;;;;;-145.45;100.00;57426.63;6278544;22;45260;-74
2023/04/24 14:33:57;;;;;;;;;4.00;4.00;;;;;-145.45;100.00;57426.63;6249756;22;45256;-72
2023/04/24 14:36:22;;;;;;;;;5.67;4.67;;;;;-145.45;100.00;57426.63;6277211;22;45270;-72
2023/04/24 14:38:49;;;;;;;;;3.00;3.00;;;;;-145.45;100.00;57426.63;6277600;22;45357;-72
2023/04/24 14:41:14;;;;;;;;;6.00;5.00;;;;;-145.45;100.00;57426.63;6278166;22;45120;-72
2023/04/24 14:43:40;;;;;;;;;1.33;1.33;;;;;-145.45;100.00;57426.63;6277871;22;45219;-72
2023/04/24 14:46:05;;;;;;;;;3.33;2.67;;;;;-145.45;100.00;57426.63;6278085;22;45204;-72
2023/04/24 14:48:31;;;;;;;;;4.00;4.00;;;;;-145.45;100.00;57426.63;6278256;22;45221;-72
2023/04/24 14:50:56;;;;;;;;;3.67;3.67;;;;;-145.45;100.00;57426.63;6278137;22;46223;-72
2023/04/24 14:53:21;;;;;;;;;3.00;3.00;;;;;-145.45;100.00;57426.63;6277815;22;45195;-71
2023/04/24 14:55:47;;;;;;;;;3.00;2.00;;;;;-145.45;100.00;57426.63;6249798;22;45619;-72
2023/04/24 14:58:12;;;;;;;;;4.00;4.00;;;;;-145.45;100.00;57426.63;6278196;22;45230;-71
2023/04/24 15:00:37;;;;;;;;;7.33;6.00;;;;;-145.45;100.00;57426.63;6250338;22;47040;-71
2023/04/24 15:03:03;;;;;;;;;3.00;3.00;;;;;-145.45;100.00;57426.63;6277888;22;45216;-71
2023/04/24 15:05:30;;;;;;;;;4.00;4.00;;;;;-145.45;100.00;57426.63;6277406;22;45434;-71
2023/04/24 15:07:55;;;;;;;;;2.00;2.00;;;;;-145.45;100.00;57426.63;6249554;22;45988;-71
2023/04/24 15:10:22;;;;;;;;;3.00;1.00;;;;;-145.45;100.00;57426.63;6277404;22;45414;-71
2023/04/24 15:12:48;;;;;;;;;3.00;2.00;;;;;-145.45;100.00;57426.63;6277716;22;45259;-72
2023/04/24 15:15:13;;;;;;;;;6.00;2.67;;;;;-145.45;100.00;57426.63;6278153;22;45328;-71
2023/04/24 15:17:39;;;;;;;;;2.33;1.33;;;;;-145.45;100.00;57426.63;6277966;22;45148;-72
2023/04/24 15:20:06;;;;;;;;;1.67;1.67;;;;;-145.45;100.00;57426.63;6276583;22;45611;-71
2023/04/24 15:22:31;;;;;;;;;2.00;2.00;;;;;-145.45;100.00;57426.63;6277908;22;45167;-71
2023/04/24 15:24:57;;;;;;;;;2.00;2.00;;;;;-145.45;100.00;57426.63;6277452;22;45204;-71
2023/04/24 15:27:22;;;;;;;;;3.00;3.00;;;;;-145.45;100.00;57426.63;6277846;22;45138;-72
2023/04/24 15:29:47;;;;;;;;;1.67;1.67;;;;;-145.45;100.00;57426.63;6277524;22;45267;-71
2023/04/24 15:32:13;;;;;;;;;2.00;2.00;;;;;-145.45;100.00;57426.63;6277787;22;45465;-71
2023/04/24 15:34:38;;;;;;;;;2.67;2.00;;;;;-145.45;100.00;57426.63;6277367;22;45264;-71
2023/04/24 15:37:04;;;;;;;;;2.00;2.00;;;;;-145.45;100.00;57426.63;6249711;22;46847;-71
2023/04/24 15:39:30;;;;;;;;;3.00;3.00;;;;;-145.45;100.00;57426.63;6276260;22;45394;-71
2023/04/24 15:41:55;;;;;;;;;2.67;2.00;;;;;-145.45;100.00;57426.63;6277516;22;45396;-71
2023/04/24 15:44:21;;;;;;;;;4.00;4.00;;;;;-145.45;100.00;57426.63;6249528;22;44755;-71
2023/04/24 15:46:47;;;;;;;;;5.00;4.00;;;;;-145.45;100.00;57426.63;6277726;22;45430;-71
2023/04/24 15:49:12;;;;;;;;;2.33;2.33;;;;;-145.45;100.00;57426.63;6249002;22;47326;-71
2023/04/24 15:51:37;;;;;;;;;5.33;4.00;;;;;-145.45;100.00;57426.63;6277900;22;45214;-71
2023/04/24 15:54:03;;;;;;;;;4.33;4.00;;;;;-145.45;100.00;57426.63;6277160;22;45336;-71
2023/04/24 15:56:28;;;;;;;;;5.33;3.00;;;;;-145.45;100.00;57426.63;6277766;22;45191;-71
2023/04/24 15:58:54;;;;;;;;;4.67;3.67;;;;;-145.45;100.00;57426.63;6277551;22;45276;-71
2023/04/24 16:01:19;;;;;;;;;3.67;3.00;;;;;-145.45;100.00;57426.63;6277552;22;45207;-71
2023/04/24 16:03:45;;;;;;;;;5.00;4.00;;;;;-145.45;100.00;57426.63;6277344;22;45176;-71
2023/04/24 16:06:10;;;;;;;;;4.67;4.00;;;;;-145.45;100.00;57426.63;6277690;22;45157;-71
2023/04/24 16:08:36;;;;;;;;;6.33;3.33;;;;;-145.45;100.00;57426.63;6277189;22;45343;-71
2023/04/24 16:11:01;;;;;;;;;4.33;4.33;;;;;-145.45;100.00;57426.63;6250107;22;45246;-71
2023/04/24 16:13:28;;;;;;;;;5.33;5.33;;;;;-145.45;100.00;57426.63;6249359;22;45197;-71
2023/04/24 16:15:53;;;;;;;;;4.00;4.00;;;;;-145.45;100.00;57426.63;6277868;22;45736;-71
2023/04/24 16:18:19;;;;;;;;;3.00;3.00;;;;;-145.45;100.00;57426.63;6248678;22;46203;-71
2023/04/24 16:20:44;;;;;;;;;8.00;6.33;;;;;-145.45;100.00;57426.63;6249637;22;45221;-71
2023/04/24 16:23:09;;;;;;;;;7.00;5.33;;;;;-145.45;100.00;57426.63;6276322;22;45251;-71
2023/04/24 16:25:35;;;;;;;;;7.33;5.00;;;;;-145.45;100.00;57426.63;6248602;22;46016;-71
2023/04/24 16:28:00;;;;;;;;;5.00;5.00;;;;;-145.45;100.00;57426.63;6277173;22;45879;-71
2023/04/24 16:30:26;;;;;;;;;7.67;5.00;;;;;-145.45;100.00;57426.63;6276769;22;45366;-71
2023/04/24 16:32:51;;;;;;;;;8.33;7.33;;;;;-145.45;100.00;57426.63;6249718;22;45313;-71
2023/04/24 16:35:17;;;;;;;;;9.00;6.00;;;;;-145.45;100.00;57426.63;6275545;22;45415;-71
2023/04/24 16:37:42;;;;;;;;;6.00;6.00;;;;;-145.45;100.00;57426.63;6277453;22;45359;-71
2023/04/24 16:40:09;;;;;;;;;6.00;5.00;;;;;-145.45;100.00;57426.63;6248808;22;45231;-71
2023/04/24 16:42:35;;;;;;;;;7.00;7.00;;;;;-145.45;100.00;57426.63;6275631;22;45370;-71
2023/04/24 16:45:01;;;;;;;;;10.00;7.33;;;;;-145.45;100.00;57426.63;6276731;22;45496;-71
2023/04/24 16:47:26;;;;;;;;;7.33;6.33;;;;;-145.45;100.00;57426.63;6277184;22;46257;-71
2023/04/24 16:49:51;;;;;;;;;7.33;6.00;;;;;-145.45;100.00;57426.63;6249539;22;45232;-71
2023/04/24 16:52:17;;;;;;;;;6.00;6.00;;;;;-145.45;100.00;57426.63;6275728;22;45990;-71